Betioky Airport


Codes: FMSV/BKU
Name: Betioky Airport
City: Betioky
Country: Madagascar
Elevation: 919 ft.

Photos at Betioky Airport


   Photos courtesy of SpottingLog. You can add your own sightings and photos by signing up for a free trial today.



No photos found.

Weather at Betioky Airport


Time (UTC)DescriptionTempratureWindCloud coverageVisibilityPressureHumidity
19-Apr-2024 03:00Overcast Clouds21°C4 mph, NE100%10000m1015hPa62%
19-Apr-2024 06:00Overcast Clouds23°C7 mph, NE100%10000m1015hPa56%
19-Apr-2024 09:00Overcast Clouds28°C2 mph, W100%10000m1014hPa45%
19-Apr-2024 12:00Overcast Clouds32°C2 mph, W99%10000m1011hPa37%
19-Apr-2024 15:00Light Rain24°C7 mph, SW95%10000m1013hPa71%
19-Apr-2024 18:00Light Rain21°C2 mph, SW98%10000m1014hPa87%
19-Apr-2024 21:00Light Rain20°C2 mph, NW49%10000m1014hPa93%
20-Apr-2024 00:00Scattered Clouds19°C2 mph, W28%10000m1013hPa97%
20-Apr-2024 03:00Scattered Clouds19°C0 mph, W36%10000m1013hPa99%
20-Apr-2024 06:00Scattered Clouds24°C2 mph, NW49%10000m1014hPa76%
20-Apr-2024 09:00Light Rain28°C4 mph, W74%10000m1011hPa51%
20-Apr-2024 12:00Broken Clouds31°C4 mph, W57%10000m1009hPa36%
20-Apr-2024 15:00Scattered Clouds25°C9 mph, SW46%10000m1011hPa59%
20-Apr-2024 18:00Few Clouds20°C4 mph, SW23%10000m1014hPa88%
20-Apr-2024 21:00Clear Sky19°C4 mph, S0%10000m1014hPa96%
21-Apr-2024 00:00Clear Sky18°C2 mph, SE1%10000m1013hPa97%
21-Apr-2024 03:00Few Clouds18°C2 mph, SE12%10000m1014hPa98%
21-Apr-2024 06:00Few Clouds24°C4 mph, E19%10000m1015hPa69%
21-Apr-2024 09:00Clear Sky32°C0 mph, N6%10000m1013hPa41%
21-Apr-2024 12:00Clear Sky32°C2 mph, W3%10000m1011hPa32%
21-Apr-2024 15:00Clear Sky25°C9 mph, SW0%10000m1012hPa53%
21-Apr-2024 18:00Clear Sky21°C7 mph, S0%10000m1014hPa75%
21-Apr-2024 21:00Clear Sky19°C2 mph, SE0%10000m1015hPa84%
22-Apr-2024 00:00Clear Sky19°C4 mph, SE0%10000m1014hPa89%
22-Apr-2024 03:00Clear Sky18°C4 mph, SE0%10000m1015hPa92%
22-Apr-2024 06:00Clear Sky26°C4 mph, E0%10000m1016hPa57%
22-Apr-2024 09:00Clear Sky34°C0 mph, E0%10000m1014hPa31%
22-Apr-2024 12:00Clear Sky35°C2 mph, S0%10000m1012hPa23%
22-Apr-2024 15:00Clear Sky26°C9 mph, SW0%10000m1013hPa46%
22-Apr-2024 18:00Clear Sky22°C9 mph, S0%10000m1016hPa64%
22-Apr-2024 21:00Clear Sky20°C7 mph, SE0%10000m1016hPa74%
23-Apr-2024 00:00Clear Sky19°C4 mph, SE0%10000m1015hPa83%
23-Apr-2024 03:00Clear Sky18°C4 mph, SE0%10000m1016hPa87%
23-Apr-2024 06:00Clear Sky26°C7 mph, SE0%10000m1016hPa51%
23-Apr-2024 09:00Clear Sky33°C4 mph, SE5%10000m1014hPa29%
23-Apr-2024 12:00Clear Sky34°C7 mph, S3%10000m1012hPa23%
23-Apr-2024 15:00Clear Sky27°C11 mph, S1%10000m1013hPa42%
23-Apr-2024 18:00Few Clouds22°C13 mph, SE13%10000m1016hPa79%
23-Apr-2024 21:00Scattered Clouds20°C7 mph, SE25%10000m1016hPa86%
24-Apr-2024 00:00Few Clouds19°C7 mph, SE15%10000m1015hPa89%